Laurier, Washington
Current Conditions -  °F | °C
As of 2:00 PM on Friday 24 Oct 2014 (Local Time) from CYCG Reporting Station
Broken Clouds Broken Clouds  
Wind Chill: 54°   Ceiling: 18000
Heat Index: 54°   Visibility: 15mi
Dew Point: 43°   Wind: 9mph
Humidity: 67%   Direction: 160°SSE
Pressure: 30.08"   Gusts: NA
Location:  49°N, 118.23°W
Report Text: CYCG 242100Z 16008KT 15SM FEW065 SCT085 BKN180 BKN220 12/06 A3008 RMK CU2AC1AC2CI2 SLP193
Loading
Personal Weather Stations






























Interactive Weather Map
Tropical Storm Tracking
New forecast layout! Learn more

10-Day Weather Forecast

Advertisements
Track Severe Weather on mobile